Αρχική σελίδα
METAR-TAF:

METAR-TAF

Αεροδρόμια :

Yap, Μικρονησία

γεωγραφικό πλάτος: 09-29N, γεωγραφικό μήκος: 138-05E, υψόμετρο: 28 μ

Παρών καιρός

Η αναφορά έγινε 35 λεπτά πριν, στις 04:53 UTC
Άνεμος 5 kt από μεταβλητές κατευθύνσεις
Θερμοκρασία 28°C
Υγρασία 94%
Πίεση 1009 hPa
Ορατότητα: 19.3 χλμ
Διάσπαρτα νέφη σε ύψος 1600 πόδια, Σωρειτομελανίτες.
Αρκετά νέφη σε ύψος 13000 πόδια
Νεφοσκεπής σε ύψος 30000 πόδια

METAR: PTYA 250453Z VRB05KT 12SM SCT016CB BKN130 OVC300 28/27 A2981 RMK SHRAB27E35 CB W SLP095 T02790265

Χρόνος: 15:28 (05:28 UTC)

Πρόγνωση Καιρού

Η αναφορά έγινε 5 ώρες και 58 λεπτά πριν, στις 23:30 UTC
Η πρόγνωση ισχύει από τις 25 στις 00 UTC έως τις 25 στις 24 UTC
Άνεμος 8 kt από Α
Ορατότητα: 10 χλμ
Διάσπαρτα νέφη σε ύψος 1600 πόδια
Διάσπαρτα νέφη σε ύψος 3000 πόδια
Αρκετά νέφη σε ύψος 13000 πόδια
Όμβροι σε κοντινή απόσταση,

TAF: PTYA 242330Z 2500/2524 10008KT P6SM VCSH SCT016 SCT030 BKN130

Μετεωρολογικές αναφορές και προγνώσεις για περισσότερα από 4000 αεροδρόμια (δελτία METAR και TAF).

Οι διαθέσιμοι σταθμοί απεικονίζονται στο χάρτη με κίτρινες και κόκκινες κουκκίδες.

Μετακινήστε το ποντίκι πάνω από τις κουκκίδες για να δείτε το όνομα του σταθμού.

Στη συνέχεια, κάντε κλικ για να δείτε τις μετεωρολογικές αναφορές και τις προγνώσεις καιρού.

Για να αλλάξετε το χάρτη: κάντε κλικ στα πράσινα κουμπιά με τον μαύρο σταυρό για να ζουμάρετε, στο πράσινο κουμπί με την παύλα για να αφαιρέσετε το ζουμ ή στα πράσινα βέλη για να αντιπαραβάλλετε χάρτες.


METAR-TAF: